Airport ID:KO05
Update Time (UTC):05/12/2021 21:22
Wind Speed (Knots):5
Wind Direction (Magnetic):140
Temperature (°C):12
Dew Point (°C):-1
Humidity (%):44
Altimeter (inHg):30.31
Density Altitude (Feet):
Visibility:10+
Clouds (Hundreds of feet):CLR
Present Weather:
METAR:METAR KO05 052120Z AUTO 15004KT 10SM CLR 12/M01 A3031 RMK A01

The data displayed is for advisory purposes only and is not to be used for flight planning or operations.